SKU273 SCFA-SCEL
Flight info
| Callsign | SKU273 |
|---|---|
| Flight time | N/A |
| Altitude | 37000 |
| Route | UKATO3A UKATO UQ803 SIMOK SIMOK7B |
| Aircraft | A21N/M-SDE2E3FGHIRWXY/LB1 |
Departure
| Time | 2026-05-01 14:24 |
|---|---|
| Airport | Andrés Sabella Gálvez International Airport (SCFA) |
Arrival
| Time | N/A |
|---|---|
| Airport | Comodoro Arturo Merino Benítez International Airport (SCEL) |
| Time | Latitude | Longitude | Altitude | Speed | Heading |
|---|---|---|---|---|---|
| 2026-05-01 14:19 | -23.44800 | -70.44216 | 372 ft | 6 kts | 285° |
| 2026-05-01 14:19 | -23.44782 | -70.44268 | 373 ft | 9 kts | 308° |
| 2026-05-01 14:19 | -23.44716 | -70.44292 | 374 ft | 12 kts | 344° |
| 2026-05-01 14:19 | -23.44629 | -70.44319 | 376 ft | 15 kts | 345° |
| 2026-05-01 14:20 | -23.44518 | -70.44322 | 379 ft | 17 kts | 6° |
| 2026-05-01 14:20 | -23.44238 | -70.44288 | 391 ft | 23 kts | 6° |
| 2026-05-01 14:20 | -23.44068 | -70.44266 | 400 ft | 26 kts | 6° |
| 2026-05-01 14:21 | -23.43955 | -70.44252 | 406 ft | 15 kts | 6° |
| 2026-05-01 14:21 | -23.43839 | -70.44238 | 413 ft | 18 kts | 6° |
| 2026-05-01 14:21 | -23.43702 | -70.44222 | 419 ft | 21 kts | 6° |
| 2026-05-01 14:22 | -23.43392 | -70.44186 | 435 ft | 22 kts | 350° |
| 2026-05-01 14:22 | -23.43308 | -70.44248 | 448 ft | 4 kts | 317° |
| 2026-05-01 14:22 | -23.43280 | -70.44279 | 449 ft | 8 kts | 299° |
| 2026-05-01 14:22 | -23.43293 | -70.44342 | 448 ft | 10 kts | 236° |
| 2026-05-01 14:23 | -23.43330 | -70.44369 | 435 ft | 0 kts | 186° |
| 2026-05-01 14:23 | -23.43340 | -70.44370 | 440 ft | 15 kts | 185° |
| 2026-05-01 14:23 | -23.43821 | -70.44428 | 414 ft | 123 kts | 187° |
| 2026-05-01 14:23 | -23.44894 | -70.44571 | 774 ft | 168 kts | 187° |
| 2026-05-01 14:24 | -23.46116 | -70.44653 | 1659 ft | 192 kts | 174° |
| 2026-05-01 14:24 | -23.47492 | -70.44379 | 2339 ft | 209 kts | 170° |
| 2026-05-01 14:24 | -23.49011 | -70.44083 | 2896 ft | 237 kts | 169° |
| 2026-05-01 14:24 | -23.50723 | -70.43763 | 3460 ft | 258 kts | 169° |
| 2026-05-01 14:25 | -23.52528 | -70.43432 | 4289 ft | 266 kts | 169° |
| 2026-05-01 14:25 | -23.54379 | -70.43094 | 5147 ft | 272 kts | 169° |
| 2026-05-01 14:25 | -23.56240 | -70.42755 | 5932 ft | 277 kts | 169° |
| 2026-05-01 14:25 | -23.58189 | -70.42399 | 6714 ft | 283 kts | 169° |
| 2026-05-01 14:26 | -23.60126 | -70.42047 | 7465 ft | 288 kts | 169° |
| 2026-05-01 14:26 | -23.64165 | -70.41312 | 9036 ft | 299 kts | 169° |
| 2026-05-01 14:26 | -23.66238 | -70.40935 | 9847 ft | 304 kts | 169° |
| 2026-05-01 14:27 | -23.68372 | -70.40547 | 10402 ft | 319 kts | 170° |
| 2026-05-01 14:27 | -23.70640 | -70.40132 | 10738 ft | 341 kts | 170° |
| 2026-05-01 14:27 | -23.73021 | -70.39695 | 11021 ft | 362 kts | 171° |
| 2026-05-01 14:28 | -23.78167 | -70.38756 | 12079 ft | 381 kts | 171° |
| 2026-05-01 14:28 | -23.80810 | -70.38432 | 12821 ft | 382 kts | 178° |
| 2026-05-01 14:28 | -23.83479 | -70.38333 | 13570 ft | 385 kts | 180° |
| 2026-05-01 14:28 | -23.86164 | -70.38254 | 14221 ft | 387 kts | 180° |
| 2026-05-01 14:29 | -23.88863 | -70.38175 | 14850 ft | 389 kts | 180° |
| 2026-05-01 14:29 | -23.91582 | -70.38089 | 15473 ft | 392 kts | 181° |
| 2026-05-01 14:30 | -23.99831 | -70.37818 | 17289 ft | 399 kts | 181° |
| 2026-05-01 14:30 | -24.02579 | -70.37727 | 17882 ft | 402 kts | 181° |
| 2026-05-01 14:30 | -24.05383 | -70.37633 | 18464 ft | 404 kts | 182° |
| 2026-05-01 14:31 | -24.11036 | -70.37443 | 19540 ft | 409 kts | 182° |
| 2026-05-01 14:31 | -24.13890 | -70.37347 | 20079 ft | 411 kts | 182° |
| 2026-05-01 14:31 | -24.16756 | -70.37252 | 20624 ft | 413 kts | 182° |
| 2026-05-01 14:31 | -24.19641 | -70.37158 | 21170 ft | 416 kts | 182° |
| 2026-05-01 14:32 | -24.22544 | -70.37061 | 21737 ft | 419 kts | 182° |
| 2026-05-01 14:32 | -24.25465 | -70.36965 | 22326 ft | 421 kts | 183° |
| 2026-05-01 14:32 | -24.28415 | -70.36867 | 22900 ft | 425 kts | 183° |
| 2026-05-01 14:32 | -24.31380 | -70.36767 | 23460 ft | 428 kts | 183° |
| 2026-05-01 14:33 | -24.34372 | -70.36666 | 23960 ft | 431 kts | 184° |
| 2026-05-01 14:33 | -24.37351 | -70.36567 | 24376 ft | 435 kts | 184° |
| 2026-05-01 14:33 | -24.40389 | -70.36466 | 24792 ft | 439 kts | 184° |
| 2026-05-01 14:33 | -24.43456 | -70.36364 | 25220 ft | 443 kts | 184° |
| 2026-05-01 14:34 | -24.46554 | -70.36260 | 25635 ft | 447 kts | 184° |
| 2026-05-01 14:34 | -24.49675 | -70.36156 | 26047 ft | 450 kts | 184° |
| 2026-05-01 14:34 | -24.52820 | -70.36049 | 26436 ft | 454 kts | 184° |
| 2026-05-01 14:34 | -24.55999 | -70.35942 | 26840 ft | 458 kts | 184° |
| 2026-05-01 14:35 | -24.59163 | -70.35837 | 27227 ft | 461 kts | 184° |
| 2026-05-01 14:35 | -24.62387 | -70.35729 | 27595 ft | 465 kts | 184° |
| 2026-05-01 14:35 | -24.65626 | -70.35620 | 27974 ft | 467 kts | 184° |
| 2026-05-01 14:35 | -24.68885 | -70.35510 | 28333 ft | 470 kts | 184° |
| 2026-05-01 14:36 | -24.72171 | -70.35400 | 28674 ft | 473 kts | 184° |
| 2026-05-01 14:36 | -24.75466 | -70.35288 | 29126 ft | 474 kts | 184° |
| 2026-05-01 14:36 | -24.78755 | -70.35176 | 29580 ft | 474 kts | 184° |
| 2026-05-01 14:36 | -24.82062 | -70.35064 | 30058 ft | 473 kts | 184° |
| 2026-05-01 14:37 | -24.85348 | -70.34954 | 30459 ft | 473 kts | 184° |
| 2026-05-01 14:37 | -24.88645 | -70.34844 | 30814 ft | 474 kts | 184° |
| 2026-05-01 14:37 | -24.91947 | -70.34734 | 31157 ft | 475 kts | 184° |
| 2026-05-01 14:37 | -24.95245 | -70.34623 | 31634 ft | 473 kts | 185° |
| 2026-05-01 14:38 | -24.98530 | -70.34513 | 32077 ft | 472 kts | 185° |
| 2026-05-01 14:38 | -25.01775 | -70.34403 | 32424 ft | 471 kts | 185° |
| 2026-05-01 14:38 | -25.05063 | -70.34293 | 32762 ft | 472 kts | 185° |
| 2026-05-01 14:38 | -25.08348 | -70.34183 | 33103 ft | 473 kts | 185° |
| 2026-05-01 14:39 | -25.11637 | -70.34072 | 33441 ft | 473 kts | 185° |
| 2026-05-01 14:39 | -25.14936 | -70.33960 | 33775 ft | 473 kts | 185° |
| 2026-05-01 14:39 | -25.18227 | -70.33849 | 34080 ft | 473 kts | 185° |
| 2026-05-01 14:39 | -25.21522 | -70.33740 | 34336 ft | 474 kts | 185° |
| 2026-05-01 14:40 | -25.24815 | -70.33629 | 34578 ft | 474 kts | 185° |
| 2026-05-01 14:40 | -25.28115 | -70.33517 | 34790 ft | 474 kts | 185° |
| 2026-05-01 14:40 | -25.31373 | -70.33408 | 34974 ft | 475 kts | 185° |
| 2026-05-01 14:40 | -25.34689 | -70.33297 | 35178 ft | 477 kts | 185° |
| 2026-05-01 14:41 | -25.38012 | -70.33185 | 35383 ft | 478 kts | 185° |
| 2026-05-01 14:41 | -25.41342 | -70.33071 | 35590 ft | 479 kts | 186° |
| 2026-05-01 14:41 | -25.44675 | -70.32959 | 35757 ft | 480 kts | 186° |
| 2026-05-01 14:41 | -25.48017 | -70.32848 | 35900 ft | 481 kts | 186° |
| 2026-05-01 14:42 | -25.51371 | -70.32736 | 36141 ft | 482 kts | 186° |
| 2026-05-01 14:42 | -25.54726 | -70.32622 | 36352 ft | 483 kts | 186° |
| 2026-05-01 14:42 | -25.58088 | -70.32506 | 36550 ft | 484 kts | 186° |
| 2026-05-01 14:42 | -25.61457 | -70.32390 | 36733 ft | 484 kts | 186° |
| 2026-05-01 14:43 | -25.64788 | -70.32276 | 36905 ft | 485 kts | 186° |
| 2026-05-01 14:43 | -25.68169 | -70.32161 | 37079 ft | 487 kts | 186° |
| 2026-05-01 14:43 | -25.71562 | -70.32045 | 37126 ft | 488 kts | 186° |
| 2026-05-01 14:44 | -25.78352 | -70.31810 | 37100 ft | 488 kts | 186° |
| 2026-05-01 14:44 | -25.88524 | -70.31465 | 37094 ft | 487 kts | 186° |
| 2026-05-01 14:45 | -25.98688 | -70.31122 | 37095 ft | 487 kts | 186° |
| 2026-05-01 14:46 | -26.05469 | -70.30893 | 37098 ft | 486 kts | 187° |
| 2026-05-01 14:46 | -26.15404 | -70.31607 | 37103 ft | 476 kts | 194° |
| 2026-05-01 14:47 | -26.22008 | -70.32224 | 37098 ft | 476 kts | 193° |
| 2026-05-01 14:48 | -26.31923 | -70.33134 | 37095 ft | 477 kts | 193° |
| 2026-05-01 14:48 | -26.41844 | -70.34050 | 37127 ft | 475 kts | 194° |
| 2026-05-01 14:49 | -26.54976 | -70.35262 | 37104 ft | 474 kts | 194° |
| 2026-05-01 14:50 | -26.68125 | -70.36477 | 37135 ft | 474 kts | 194° |
| 2026-05-01 14:51 | -26.77959 | -70.37384 | 37102 ft | 472 kts | 194° |
| 2026-05-01 14:52 | -26.87743 | -70.38293 | 37105 ft | 472 kts | 194° |
| 2026-05-01 14:53 | -26.97567 | -70.39209 | 37105 ft | 472 kts | 194° |
| 2026-05-01 14:53 | -27.04120 | -70.39820 | 37110 ft | 472 kts | 194° |
| 2026-05-01 14:54 | -27.10675 | -70.40432 | 37111 ft | 472 kts | 194° |
| 2026-05-01 14:54 | -27.17227 | -70.41045 | 37116 ft | 472 kts | 194° |
| 2026-05-01 14:55 | -27.23776 | -70.41658 | 37118 ft | 472 kts | 194° |
| 2026-05-01 14:55 | -27.30321 | -70.42269 | 37135 ft | 470 kts | 194° |
| 2026-05-01 14:56 | -27.36849 | -70.42881 | 37123 ft | 470 kts | 194° |
| 2026-05-01 14:56 | -27.43341 | -70.43490 | 37125 ft | 470 kts | 194° |
| 2026-05-01 14:57 | -27.49867 | -70.44104 | 37126 ft | 470 kts | 194° |
| 2026-05-01 14:57 | -27.59629 | -70.45021 | 37133 ft | 467 kts | 194° |
| 2026-05-01 14:58 | -27.66115 | -70.45633 | 37128 ft | 467 kts | 194° |
| 2026-05-01 14:58 | -27.72595 | -70.46246 | 37127 ft | 467 kts | 194° |
| 2026-05-01 14:59 | -27.79083 | -70.46860 | 37124 ft | 467 kts | 194° |
| 2026-05-01 14:59 | -27.85565 | -70.47472 | 37168 ft | 466 kts | 194° |
| 2026-05-01 15:00 | -27.95198 | -70.48386 | 37143 ft | 465 kts | 195° |
| 2026-05-01 15:01 | -28.01655 | -70.48999 | 37141 ft | 465 kts | 195° |
| 2026-05-01 15:01 | -28.08110 | -70.49611 | 37138 ft | 465 kts | 195° |
| 2026-05-01 15:02 | -28.14551 | -70.50224 | 37154 ft | 463 kts | 195° |
| 2026-05-01 15:02 | -28.20974 | -70.50836 | 37142 ft | 463 kts | 195° |
| 2026-05-01 15:03 | -28.27387 | -70.51449 | 37136 ft | 463 kts | 195° |
| 2026-05-01 15:03 | -28.32728 | -70.51958 | 37136 ft | 463 kts | 195° |
| 2026-05-01 15:04 | -28.39145 | -70.52571 | 37132 ft | 463 kts | 195° |
| 2026-05-01 15:04 | -28.46591 | -70.53280 | 37148 ft | 459 kts | 196° |
| 2026-05-01 15:05 | -28.52974 | -70.53891 | 37128 ft | 461 kts | 195° |
| 2026-05-01 15:05 | -28.58270 | -70.54382 | 37128 ft | 459 kts | 195° |
| 2026-05-01 15:06 | -28.64644 | -70.54979 | 37135 ft | 459 kts | 195° |
| 2026-05-01 15:06 | -28.70998 | -70.55573 | 37143 ft | 457 kts | 195° |
| 2026-05-01 15:07 | -28.77338 | -70.56167 | 37132 ft | 457 kts | 195° |
| 2026-05-01 15:07 | -28.83694 | -70.56765 | 37137 ft | 458 kts | 195° |
| 2026-05-01 15:08 | -28.90007 | -70.57359 | 37153 ft | 458 kts | 195° |
| 2026-05-01 15:08 | -28.96388 | -70.57966 | 37193 ft | 456 kts | 195° |
| 2026-05-01 15:09 | -29.02684 | -70.58578 | 37162 ft | 458 kts | 195° |
| 2026-05-01 15:09 | -29.09043 | -70.59195 | 37180 ft | 458 kts | 195° |
| 2026-05-01 15:10 | -29.15390 | -70.59807 | 37176 ft | 458 kts | 195° |
| 2026-05-01 15:10 | -29.24901 | -70.60731 | 37208 ft | 456 kts | 196° |
| 2026-05-01 15:11 | -29.34420 | -70.61651 | 37171 ft | 457 kts | 195° |
| 2026-05-01 15:12 | -29.40713 | -70.62263 | 37156 ft | 453 kts | 196° |
| 2026-05-01 15:12 | -29.50190 | -70.63190 | 37174 ft | 456 kts | 195° |
| 2026-05-01 15:14 | -29.65962 | -70.64727 | 37163 ft | 454 kts | 195° |
| 2026-05-01 15:14 | -29.75394 | -70.65655 | 37167 ft | 454 kts | 195° |
| 2026-05-01 15:15 | -29.87993 | -70.66890 | 37150 ft | 456 kts | 195° |
| 2026-05-01 15:16 | -30.00655 | -70.68135 | 37150 ft | 455 kts | 195° |
| 2026-05-01 15:18 | -30.16352 | -70.69682 | 37146 ft | 452 kts | 195° |
| 2026-05-01 15:19 | -30.28891 | -70.70922 | 37154 ft | 451 kts | 195° |
| 2026-05-01 15:19 | -30.38293 | -70.71851 | 37171 ft | 451 kts | 195° |
| 2026-05-01 15:20 | -30.47674 | -70.72788 | 37165 ft | 451 kts | 195° |
| 2026-05-01 15:21 | -30.53940 | -70.73411 | 37169 ft | 451 kts | 195° |
| 2026-05-01 15:21 | -30.60155 | -70.74031 | 37171 ft | 451 kts | 195° |
| 2026-05-01 15:22 | -30.69548 | -70.74941 | 37133 ft | 452 kts | 195° |
| 2026-05-01 15:22 | -30.75832 | -70.75551 | 37121 ft | 452 kts | 195° |
| 2026-05-01 15:23 | -30.82055 | -70.76153 | 37147 ft | 451 kts | 195° |
| 2026-05-01 15:23 | -30.88306 | -70.76765 | 37182 ft | 450 kts | 194° |
| 2026-05-01 15:24 | -30.94539 | -70.77371 | 37132 ft | 448 kts | 195° |
| 2026-05-01 15:24 | -31.00774 | -70.77978 | 37092 ft | 450 kts | 195° |
| 2026-05-01 15:25 | -31.06959 | -70.78576 | 37262 ft | 446 kts | 195° |
| 2026-05-01 15:25 | -31.13166 | -70.79190 | 37187 ft | 448 kts | 195° |
| 2026-05-01 15:26 | -31.19326 | -70.79793 | 37178 ft | 446 kts | 194° |
| 2026-05-01 15:26 | -31.25519 | -70.80400 | 37177 ft | 446 kts | 194° |
| 2026-05-01 15:27 | -31.31684 | -70.81007 | 37174 ft | 446 kts | 194° |
| 2026-05-01 15:28 | -31.40974 | -70.81921 | 37180 ft | 447 kts | 194° |
| 2026-05-01 15:28 | -31.47139 | -70.82524 | 37155 ft | 440 kts | 195° |
| 2026-05-01 15:29 | -31.56329 | -70.83432 | 37187 ft | 443 kts | 194° |
| 2026-05-01 15:30 | -31.68635 | -70.84657 | 37186 ft | 447 kts | 193° |
| 2026-05-01 15:31 | -31.80994 | -70.85129 | 36832 ft | 444 kts | 187° |
| 2026-05-01 15:31 | -31.87232 | -70.84897 | 34566 ft | 452 kts | 185° |
| 2026-05-01 15:32 | -31.93587 | -70.84668 | 31925 ft | 460 kts | 184° |
| 2026-05-01 15:32 | -32.00023 | -70.84438 | 29219 ft | 464 kts | 184° |
| 2026-05-01 15:33 | -32.09522 | -70.84090 | 26102 ft | 445 kts | 184° |
| 2026-05-01 15:34 | -32.18627 | -70.83767 | 23230 ft | 426 kts | 184° |